sensor_id;sensor_type;location;lat;lon;timestamp;P1;durP1;ratioP1;P2;durP2;ratioP2
26484;SDS011;18083;50.560;7.262;2024-01-11T00:01:55;52.97;;;25.57;;
26484;SDS011;18083;50.560;7.262;2024-01-11T00:04:22;55.73;;;30.37;;
26484;SDS011;18083;50.560;7.262;2024-01-11T00:06:50;62.07;;;27.87;;
26484;SDS011;18083;50.560;7.262;2024-01-11T00:09:17;53.37;;;28.23;;
26484;SDS011;18083;50.560;7.262;2024-01-11T00:11:44;56.10;;;25.17;;
26484;SDS011;18083;50.560;7.262;2024-01-11T00:14:12;51.80;;;27.93;;
26484;SDS011;18083;50.560;7.262;2024-01-11T00:16:40;48.90;;;24.93;;
26484;SDS011;18083;50.560;7.262;2024-01-11T00:19:08;52.53;;;26.70;;
26484;SDS011;18083;50.560;7.262;2024-01-11T00:21:36;59.00;;;27.30;;
26484;SDS011;18083;50.560;7.262;2024-01-11T00:24:03;47.97;;;25.27;;
26484;SDS011;18083;50.560;7.262;2024-01-11T00:26:30;58.60;;;26.23;;
26484;SDS011;18083;50.560;7.262;2024-01-11T00:28:58;54.37;;;27.03;;
26484;SDS011;18083;50.560;7.262;2024-01-11T00:31:25;52.40;;;26.30;;
26484;SDS011;18083;50.560;7.262;2024-01-11T00:33:53;58.40;;;27.40;;
26484;SDS011;18083;50.560;7.262;2024-01-11T00:36:20;61.73;;;25.00;;
26484;SDS011;18083;50.560;7.262;2024-01-11T00:38:48;53.77;;;27.43;;
26484;SDS011;18083;50.560;7.262;2024-01-11T00:41:16;53.13;;;26.97;;
26484;SDS011;18083;50.560;7.262;2024-01-11T00:43:43;63.80;;;27.10;;
26484;SDS011;18083;50.560;7.262;2024-01-11T00:46:10;49.93;;;26.87;;
26484;SDS011;18083;50.560;7.262;2024-01-11T00:48:38;52.93;;;28.93;;
26484;SDS011;18083;50.560;7.262;2024-01-11T00:51:05;58.67;;;27.13;;
26484;SDS011;18083;50.560;7.262;2024-01-11T00:53:32;58.20;;;25.17;;
26484;SDS011;18083;50.560;7.262;2024-01-11T00:56:00;59.80;;;27.53;;
26484;SDS011;18083;50.560;7.262;2024-01-11T00:58:27;46.87;;;25.70;;
26484;SDS011;18083;50.560;7.262;2024-01-11T01:00:55;40.27;;;23.73;;
26484;SDS011;18083;50.560;7.262;2024-01-11T01:03:23;58.60;;;26.77;;
26484;SDS011;18083;50.560;7.262;2024-01-11T01:05:50;42.70;;;22.80;;
26484;SDS011;18083;50.560;7.262;2024-01-11T01:08:18;53.40;;;25.33;;
26484;SDS011;18083;50.560;7.262;2024-01-11T01:10:45;54.10;;;25.23;;
26484;SDS011;18083;50.560;7.262;2024-01-11T01:13:12;48.17;;;22.77;;
26484;SDS011;18083;50.560;7.262;2024-01-11T01:15:39;46.37;;;21.47;;
26484;SDS011;18083;50.560;7.262;2024-01-11T01:18:07;49.73;;;24.80;;
26484;SDS011;18083;50.560;7.262;2024-01-11T01:20:34;46.23;;;23.30;;
26484;SDS011;18083;50.560;7.262;2024-01-11T01:23:01;50.47;;;23.87;;
26484;SDS011;18083;50.560;7.262;2024-01-11T01:25:29;54.23;;;26.33;;
26484;SDS011;18083;50.560;7.262;2024-01-11T01:27:56;48.37;;;22.57;;
26484;SDS011;18083;50.560;7.262;2024-01-11T01:30:25;44.80;;;22.13;;
26484;SDS011;18083;50.560;7.262;2024-01-11T01:32:53;49.13;;;22.90;;
26484;SDS011;18083;50.560;7.262;2024-01-11T01:35:20;51.70;;;22.17;;
26484;SDS011;18083;50.560;7.262;2024-01-11T01:37:47;56.73;;;23.93;;
26484;SDS011;18083;50.560;7.262;2024-01-11T01:40:15;57.47;;;25.83;;
26484;SDS011;18083;50.560;7.262;2024-01-11T01:42:43;49.50;;;23.57;;
26484;SDS011;18083;50.560;7.262;2024-01-11T01:45:11;47.40;;;22.53;;
26484;SDS011;18083;50.560;7.262;2024-01-11T01:47:42;47.53;;;23.27;;
26484;SDS011;18083;50.560;7.262;2024-01-11T01:50:10;46.23;;;22.43;;
26484;SDS011;18083;50.560;7.262;2024-01-11T01:52:38;50.00;;;23.07;;
26484;SDS011;18083;50.560;7.262;2024-01-11T01:55:07;47.77;;;20.50;;
26484;SDS011;18083;50.560;7.262;2024-01-11T01:57:35;43.93;;;21.23;;
26484;SDS011;18083;50.560;7.262;2024-01-11T02:00:04;45.37;;;23.07;;
26484;SDS011;18083;50.560;7.262;2024-01-11T02:02:31;47.47;;;22.57;;
26484;SDS011;18083;50.560;7.262;2024-01-11T02:05:00;41.87;;;21.67;;
26484;SDS011;18083;50.560;7.262;2024-01-11T02:07:28;45.07;;;20.60;;
26484;SDS011;18083;50.560;7.262;2024-01-11T02:09:55;45.03;;;21.23;;
26484;SDS011;18083;50.560;7.262;2024-01-11T02:12:23;46.83;;;20.87;;
26484;SDS011;18083;50.560;7.262;2024-01-11T02:17:54;52.00;;;22.73;;
26484;SDS011;18083;50.560;7.262;2024-01-11T02:20:21;48.80;;;22.20;;
26484;SDS011;18083;50.560;7.262;2024-01-11T02:22:50;42.07;;;20.63;;
26484;SDS011;18083;50.560;7.262;2024-01-11T02:25:17;43.97;;;21.13;;
26484;SDS011;18083;50.560;7.262;2024-01-11T02:27:48;45.47;;;20.87;;
26484;SDS011;18083;50.560;7.262;2024-01-11T02:30:16;48.67;;;21.80;;
26484;SDS011;18083;50.560;7.262;2024-01-11T02:32:43;39.23;;;21.43;;
26484;SDS011;18083;50.560;7.262;2024-01-11T02:35:14;44.80;;;20.63;;
26484;SDS011;18083;50.560;7.262;2024-01-11T02:37:42;37.23;;;19.73;;
26484;SDS011;18083;50.560;7.262;2024-01-11T02:40:10;38.67;;;20.93;;
26484;SDS011;18083;50.560;7.262;2024-01-11T02:42:37;42.83;;;21.53;;
26484;SDS011;18083;50.560;7.262;2024-01-11T02:45:04;43.07;;;21.00;;
26484;SDS011;18083;50.560;7.262;2024-01-11T02:47:32;40.90;;;20.83;;
26484;SDS011;18083;50.560;7.262;2024-01-11T02:49:59;41.90;;;21.30;;
26484;SDS011;18083;50.560;7.262;2024-01-11T02:52:26;40.90;;;20.80;;
26484;SDS011;18083;50.560;7.262;2024-01-11T02:54:54;43.17;;;21.40;;
26484;SDS011;18083;50.560;7.262;2024-01-11T02:57:21;35.23;;;19.77;;
26484;SDS011;18083;50.560;7.262;2024-01-11T02:59:49;45.27;;;20.63;;
26484;SDS011;18083;50.560;7.262;2024-01-11T03:02:16;51.33;;;22.80;;
26484;SDS011;18083;50.560;7.262;2024-01-11T03:04:43;38.67;;;18.33;;
26484;SDS011;18083;50.560;7.262;2024-01-11T03:07:11;39.43;;;20.93;;
26484;SDS011;18083;50.560;7.262;2024-01-11T03:09:38;49.13;;;20.53;;
26484;SDS011;18083;50.560;7.262;2024-01-11T03:12:05;46.03;;;22.03;;
26484;SDS011;18083;50.560;7.262;2024-01-11T03:14:33;50.60;;;21.50;;
26484;SDS011;18083;50.560;7.262;2024-01-11T03:17:00;45.70;;;21.30;;
26484;SDS011;18083;50.560;7.262;2024-01-11T03:19:28;43.80;;;21.03;;
26484;SDS011;18083;50.560;7.262;2024-01-11T03:21:55;45.17;;;21.27;;
26484;SDS011;18083;50.560;7.262;2024-01-11T03:24:22;55.80;;;21.50;;
26484;SDS011;18083;50.560;7.262;2024-01-11T03:26:49;45.87;;;21.17;;
26484;SDS011;18083;50.560;7.262;2024-01-11T03:29:17;41.70;;;21.23;;
26484;SDS011;18083;50.560;7.262;2024-01-11T03:31:44;39.00;;;20.53;;
26484;SDS011;18083;50.560;7.262;2024-01-11T03:34:11;44.53;;;20.80;;
26484;SDS011;18083;50.560;7.262;2024-01-11T03:36:39;37.67;;;19.77;;
26484;SDS011;18083;50.560;7.262;2024-01-11T03:39:06;41.37;;;20.33;;
26484;SDS011;18083;50.560;7.262;2024-01-11T03:41:33;42.90;;;21.07;;
26484;SDS011;18083;50.560;7.262;2024-01-11T03:44:01;35.10;;;19.73;;
26484;SDS011;18083;50.560;7.262;2024-01-11T03:46:28;46.40;;;21.13;;
26484;SDS011;18083;50.560;7.262;2024-01-11T03:48:55;43.60;;;18.80;;
26484;SDS011;18083;50.560;7.262;2024-01-11T03:51:23;37.80;;;18.93;;
26484;SDS011;18083;50.560;7.262;2024-01-11T03:53:50;42.77;;;21.50;;
26484;SDS011;18083;50.560;7.262;2024-01-11T03:56:17;35.83;;;20.43;;
26484;SDS011;18083;50.560;7.262;2024-01-11T03:58:45;41.70;;;20.73;;
26484;SDS011;18083;50.560;7.262;2024-01-11T04:01:13;39.43;;;21.10;;
26484;SDS011;18083;50.560;7.262;2024-01-11T04:03:41;41.83;;;19.33;;
26484;SDS011;18083;50.560;7.262;2024-01-11T04:06:08;39.37;;;20.93;;
26484;SDS011;18083;50.560;7.262;2024-01-11T04:08:36;40.83;;;20.03;;
26484;SDS011;18083;50.560;7.262;2024-01-11T04:11:03;50.73;;;21.50;;
26484;SDS011;18083;50.560;7.262;2024-01-11T04:13:31;33.00;;;17.93;;
26484;SDS011;18083;50.560;7.262;2024-01-11T04:15:58;44.57;;;19.90;;
26484;SDS011;18083;50.560;7.262;2024-01-11T04:18:25;42.03;;;20.43;;
26484;SDS011;18083;50.560;7.262;2024-01-11T04:20:53;39.23;;;18.60;;
26484;SDS011;18083;50.560;7.262;2024-01-11T04:23:20;39.63;;;19.47;;
26484;SDS011;18083;50.560;7.262;2024-01-11T04:25:47;40.83;;;20.87;;
26484;SDS011;18083;50.560;7.262;2024-01-11T04:28:16;36.57;;;19.43;;
26484;SDS011;18083;50.560;7.262;2024-01-11T04:30:44;44.07;;;19.37;;
26484;SDS011;18083;50.560;7.262;2024-01-11T04:33:11;46.40;;;20.57;;
26484;SDS011;18083;50.560;7.262;2024-01-11T04:35:38;43.87;;;21.97;;
26484;SDS011;18083;50.560;7.262;2024-01-11T04:38:05;36.07;;;19.07;;
26484;SDS011;18083;50.560;7.262;2024-01-11T04:40:33;43.80;;;20.10;;
26484;SDS011;18083;50.560;7.262;2024-01-11T04:43:00;41.07;;;19.97;;
26484;SDS011;18083;50.560;7.262;2024-01-11T04:45:28;44.73;;;18.20;;
26484;SDS011;18083;50.560;7.262;2024-01-11T04:47:55;38.70;;;19.03;;
26484;SDS011;18083;50.560;7.262;2024-01-11T04:50:22;47.63;;;19.83;;
26484;SDS011;18083;50.560;7.262;2024-01-11T04:52:50;46.03;;;22.90;;
26484;SDS011;18083;50.560;7.262;2024-01-11T04:55:17;42.53;;;19.07;;
26484;SDS011;18083;50.560;7.262;2024-01-11T04:57:44;49.87;;;20.70;;
26484;SDS011;18083;50.560;7.262;2024-01-11T05:00:12;40.67;;;17.80;;
26484;SDS011;18083;50.560;7.262;2024-01-11T05:02:39;40.67;;;18.20;;
26484;SDS011;18083;50.560;7.262;2024-01-11T05:05:07;39.57;;;18.50;;
26484;SDS011;18083;50.560;7.262;2024-01-11T05:07:34;37.70;;;19.27;;
26484;SDS011;18083;50.560;7.262;2024-01-11T05:10:01;37.73;;;18.13;;
26484;SDS011;18083;50.560;7.262;2024-01-11T05:12:29;41.03;;;19.77;;
26484;SDS011;18083;50.560;7.262;2024-01-11T05:14:56;40.57;;;18.10;;
26484;SDS011;18083;50.560;7.262;2024-01-11T05:17:24;39.47;;;18.90;;
26484;SDS011;18083;50.560;7.262;2024-01-11T05:19:51;42.37;;;17.80;;
26484;SDS011;18083;50.560;7.262;2024-01-11T05:22:19;43.70;;;17.87;;
26484;SDS011;18083;50.560;7.262;2024-01-11T05:24:46;37.70;;;18.90;;
26484;SDS011;18083;50.560;7.262;2024-01-11T05:27:13;38.43;;;19.63;;
26484;SDS011;18083;50.560;7.262;2024-01-11T05:29:41;48.67;;;20.60;;
26484;SDS011;18083;50.560;7.262;2024-01-11T05:32:08;37.17;;;19.07;;
26484;SDS011;18083;50.560;7.262;2024-01-11T05:34:35;35.57;;;19.27;;
26484;SDS011;18083;50.560;7.262;2024-01-11T05:37:03;40.37;;;18.90;;
26484;SDS011;18083;50.560;7.262;2024-01-11T05:39:30;48.13;;;20.67;;
26484;SDS011;18083;50.560;7.262;2024-01-11T05:41:57;45.23;;;19.63;;
26484;SDS011;18083;50.560;7.262;2024-01-11T05:44:25;43.20;;;21.97;;
26484;SDS011;18083;50.560;7.262;2024-01-11T05:46:52;43.27;;;20.23;;
26484;SDS011;18083;50.560;7.262;2024-01-11T05:49:19;51.67;;;19.87;;
26484;SDS011;18083;50.560;7.262;2024-01-11T05:51:47;37.40;;;19.70;;
26484;SDS011;18083;50.560;7.262;2024-01-11T05:54:14;49.07;;;21.80;;
26484;SDS011;18083;50.560;7.262;2024-01-11T05:56:42;42.30;;;20.57;;
26484;SDS011;18083;50.560;7.262;2024-01-11T05:59:09;38.70;;;19.87;;
26484;SDS011;18083;50.560;7.262;2024-01-11T06:01:42;42.20;;;18.23;;
26484;SDS011;18083;50.560;7.262;2024-01-11T06:04:09;40.07;;;20.10;;
26484;SDS011;18083;50.560;7.262;2024-01-11T06:06:37;42.20;;;21.57;;
26484;SDS011;18083;50.560;7.262;2024-01-11T06:09:04;41.13;;;19.60;;
26484;SDS011;18083;50.560;7.262;2024-01-11T06:11:31;46.57;;;19.57;;
26484;SDS011;18083;50.560;7.262;2024-01-11T06:14:04;46.00;;;21.60;;
26484;SDS011;18083;50.560;7.262;2024-01-11T06:16:34;52.43;;;19.97;;
26484;SDS011;18083;50.560;7.262;2024-01-11T06:19:05;48.20;;;21.57;;
26484;SDS011;18083;50.560;7.262;2024-01-11T06:21:33;40.90;;;17.20;;
26484;SDS011;18083;50.560;7.262;2024-01-11T06:24:04;45.83;;;19.30;;
26484;SDS011;18083;50.560;7.262;2024-01-11T06:26:31;47.33;;;19.50;;
26484;SDS011;18083;50.560;7.262;2024-01-11T06:28:58;42.53;;;20.33;;
26484;SDS011;18083;50.560;7.262;2024-01-11T06:31:26;44.40;;;21.83;;
26484;SDS011;18083;50.560;7.262;2024-01-11T06:33:53;47.03;;;22.30;;
26484;SDS011;18083;50.560;7.262;2024-01-11T06:36:21;53.70;;;21.87;;
26484;SDS011;18083;50.560;7.262;2024-01-11T06:38:48;46.67;;;21.87;;
26484;SDS011;18083;50.560;7.262;2024-01-11T06:41:15;43.20;;;21.47;;
26484;SDS011;18083;50.560;7.262;2024-01-11T06:43:43;41.83;;;20.80;;
26484;SDS011;18083;50.560;7.262;2024-01-11T06:46:10;40.53;;;22.07;;
26484;SDS011;18083;50.560;7.262;2024-01-11T06:48:37;64.83;;;27.90;;
26484;SDS011;18083;50.560;7.262;2024-01-11T06:51:05;50.57;;;26.13;;
26484;SDS011;18083;50.560;7.262;2024-01-11T06:53:32;54.50;;;22.43;;
26484;SDS011;18083;50.560;7.262;2024-01-11T06:55:59;44.17;;;22.30;;
26484;SDS011;18083;50.560;7.262;2024-01-11T06:58:27;42.33;;;22.60;;
26484;SDS011;18083;50.560;7.262;2024-01-11T07:00:54;49.57;;;24.80;;
26484;SDS011;18083;50.560;7.262;2024-01-11T07:03:21;51.57;;;23.63;;
26484;SDS011;18083;50.560;7.262;2024-01-11T07:05:48;51.07;;;22.67;;
26484;SDS011;18083;50.560;7.262;2024-01-11T07:08:16;40.67;;;20.40;;
26484;SDS011;18083;50.560;7.262;2024-01-11T07:10:43;53.40;;;24.73;;
26484;SDS011;18083;50.560;7.262;2024-01-11T07:13:10;46.73;;;21.00;;
26484;SDS011;18083;50.560;7.262;2024-01-11T07:15:39;45.97;;;21.73;;
26484;SDS011;18083;50.560;7.262;2024-01-11T07:18:06;85.77;;;35.23;;
26484;SDS011;18083;50.560;7.262;2024-01-11T07:20:34;60.37;;;28.40;;
26484;SDS011;18083;50.560;7.262;2024-01-11T07:23:01;61.57;;;29.33;;
26484;SDS011;18083;50.560;7.262;2024-01-11T07:25:28;67.67;;;28.63;;
26484;SDS011;18083;50.560;7.262;2024-01-11T07:27:56;53.23;;;26.30;;
26484;SDS011;18083;50.560;7.262;2024-01-11T07:30:23;50.70;;;24.57;;
26484;SDS011;18083;50.560;7.262;2024-01-11T07:32:51;45.03;;;23.13;;
26484;SDS011;18083;50.560;7.262;2024-01-11T07:35:18;61.13;;;26.27;;
26484;SDS011;18083;50.560;7.262;2024-01-11T07:37:46;55.27;;;26.03;;
26484;SDS011;18083;50.560;7.262;2024-01-11T07:40:14;52.10;;;28.60;;
26484;SDS011;18083;50.560;7.262;2024-01-11T07:42:42;77.27;;;33.30;;
26484;SDS011;18083;50.560;7.262;2024-01-11T07:45:09;63.50;;;28.97;;
26484;SDS011;18083;50.560;7.262;2024-01-11T07:47:37;70.90;;;32.87;;
26484;SDS011;18083;50.560;7.262;2024-01-11T07:50:09;65.43;;;30.70;;
26484;SDS011;18083;50.560;7.262;2024-01-11T07:52:33;103.37;;;43.27;;
26484;SDS011;18083;50.560;7.262;2024-01-11T07:55:01;89.87;;;37.87;;
26484;SDS011;18083;50.560;7.262;2024-01-11T07:57:30;75.70;;;34.77;;
26484;SDS011;18083;50.560;7.262;2024-01-11T07:59:57;91.37;;;38.27;;
26484;SDS011;18083;50.560;7.262;2024-01-11T08:02:27;65.87;;;34.53;;
26484;SDS011;18083;50.560;7.262;2024-01-11T08:04:54;82.27;;;35.13;;
26484;SDS011;18083;50.560;7.262;2024-01-11T08:07:21;70.67;;;31.93;;
26484;SDS011;18083;50.560;7.262;2024-01-11T08:09:48;71.67;;;32.37;;
26484;SDS011;18083;50.560;7.262;2024-01-11T08:12:16;67.87;;;31.90;;
26484;SDS011;18083;50.560;7.262;2024-01-11T08:14:43;71.63;;;30.73;;
26484;SDS011;18083;50.560;7.262;2024-01-11T08:17:13;77.23;;;34.20;;
26484;SDS011;18083;50.560;7.262;2024-01-11T08:19:40;67.07;;;31.57;;
26484;SDS011;18083;50.560;7.262;2024-01-11T08:22:09;68.33;;;31.80;;
26484;SDS011;18083;50.560;7.262;2024-01-11T08:24:37;68.07;;;34.37;;
26484;SDS011;18083;50.560;7.262;2024-01-11T08:27:05;81.83;;;37.83;;
26484;SDS011;18083;50.560;7.262;2024-01-11T08:29:32;82.43;;;34.57;;
26484;SDS011;18083;50.560;7.262;2024-01-11T08:31:59;61.27;;;32.97;;
26484;SDS011;18083;50.560;7.262;2024-01-11T08:34:28;48.10;;;23.43;;
26484;SDS011;18083;50.560;7.262;2024-01-11T08:36:56;51.47;;;24.70;;
26484;SDS011;18083;50.560;7.262;2024-01-11T08:39:23;46.50;;;24.10;;
26484;SDS011;18083;50.560;7.262;2024-01-11T08:41:50;43.57;;;23.30;;
26484;SDS011;18083;50.560;7.262;2024-01-11T08:44:18;50.20;;;23.57;;
26484;SDS011;18083;50.560;7.262;2024-01-11T08:46:46;52.40;;;26.47;;
26484;SDS011;18083;50.560;7.262;2024-01-11T08:49:14;53.77;;;25.00;;
26484;SDS011;18083;50.560;7.262;2024-01-11T08:51:41;54.93;;;26.20;;
26484;SDS011;18083;50.560;7.262;2024-01-11T08:54:09;49.30;;;25.93;;
26484;SDS011;18083;50.560;7.262;2024-01-11T08:56:37;57.10;;;27.07;;
26484;SDS011;18083;50.560;7.262;2024-01-11T08:59:06;50.33;;;26.23;;
26484;SDS011;18083;50.560;7.262;2024-01-11T09:01:35;40.87;;;23.50;;
26484;SDS011;18083;50.560;7.262;2024-01-11T09:04:02;46.37;;;23.90;;
26484;SDS011;18083;50.560;7.262;2024-01-11T09:06:31;40.30;;;21.03;;
26484;SDS011;18083;50.560;7.262;2024-01-11T09:08:59;47.53;;;21.87;;
26484;SDS011;18083;50.560;7.262;2024-01-11T09:11:27;39.53;;;19.10;;
26484;SDS011;18083;50.560;7.262;2024-01-11T09:13:54;45.60;;;24.73;;
26484;SDS011;18083;50.560;7.262;2024-01-11T09:16:22;52.47;;;23.23;;
26484;SDS011;18083;50.560;7.262;2024-01-11T09:18:50;53.47;;;26.17;;
26484;SDS011;18083;50.560;7.262;2024-01-11T09:21:18;46.13;;;22.80;;
26484;SDS011;18083;50.560;7.262;2024-01-11T09:23:45;50.57;;;24.50;;
26484;SDS011;18083;50.560;7.262;2024-01-11T09:26:13;46.93;;;22.00;;
26484;SDS011;18083;50.560;7.262;2024-01-11T09:28:40;53.33;;;23.60;;
26484;SDS011;18083;50.560;7.262;2024-01-11T09:31:07;47.67;;;23.83;;
26484;SDS011;18083;50.560;7.262;2024-01-11T09:33:35;46.73;;;25.40;;
26484;SDS011;18083;50.560;7.262;2024-01-11T09:36:02;44.63;;;24.10;;
26484;SDS011;18083;50.560;7.262;2024-01-11T09:38:29;53.93;;;25.60;;
26484;SDS011;18083;50.560;7.262;2024-01-11T09:41:05;42.90;;;24.77;;
26484;SDS011;18083;50.560;7.262;2024-01-11T09:43:25;40.13;;;22.53;;
26484;SDS011;18083;50.560;7.262;2024-01-11T09:45:53;40.70;;;24.57;;
26484;SDS011;18083;50.560;7.262;2024-01-11T09:48:21;52.37;;;25.93;;
26484;SDS011;18083;50.560;7.262;2024-01-11T09:50:50;38.03;;;22.80;;
26484;SDS011;18083;50.560;7.262;2024-01-11T09:53:18;45.60;;;22.10;;
26484;SDS011;18083;50.560;7.262;2024-01-11T09:55:47;43.27;;;25.37;;
26484;SDS011;18083;50.560;7.262;2024-01-11T09:58:15;48.37;;;23.83;;
26484;SDS011;18083;50.560;7.262;2024-01-11T10:00:42;47.50;;;22.90;;
26484;SDS011;18083;50.560;7.262;2024-01-11T10:03:10;48.40;;;21.83;;
26484;SDS011;18083;50.560;7.262;2024-01-11T10:05:37;46.80;;;22.43;;
26484;SDS011;18083;50.560;7.262;2024-01-11T10:08:05;48.90;;;24.47;;
26484;SDS011;18083;50.560;7.262;2024-01-11T10:10:32;46.97;;;22.53;;
26484;SDS011;18083;50.560;7.262;2024-01-11T10:12:59;44.67;;;24.50;;
26484;SDS011;18083;50.560;7.262;2024-01-11T10:15:27;41.57;;;23.83;;
26484;SDS011;18083;50.560;7.262;2024-01-11T10:17:54;43.83;;;22.50;;
26484;SDS011;18083;50.560;7.262;2024-01-11T10:20:22;38.40;;;23.70;;
26484;SDS011;18083;50.560;7.262;2024-01-11T10:22:50;47.23;;;25.20;;
26484;SDS011;18083;50.560;7.262;2024-01-11T10:25:18;40.47;;;23.33;;
26484;SDS011;18083;50.560;7.262;2024-01-11T10:27:46;45.73;;;23.67;;
26484;SDS011;18083;50.560;7.262;2024-01-11T10:30:14;49.57;;;23.80;;
26484;SDS011;18083;50.560;7.262;2024-01-11T10:32:46;45.10;;;25.07;;
26484;SDS011;18083;50.560;7.262;2024-01-11T10:35:14;48.93;;;24.27;;
26484;SDS011;18083;50.560;7.262;2024-01-11T10:37:43;53.00;;;28.23;;
26484;SDS011;18083;50.560;7.262;2024-01-11T10:40:11;66.63;;;35.80;;
26484;SDS011;18083;50.560;7.262;2024-01-11T10:42:47;55.13;;;31.37;;
26484;SDS011;18083;50.560;7.262;2024-01-11T10:45:15;55.37;;;26.90;;
26484;SDS011;18083;50.560;7.262;2024-01-11T10:50:14;51.77;;;27.27;;
26484;SDS011;18083;50.560;7.262;2024-01-11T10:52:43;41.57;;;24.93;;
26484;SDS011;18083;50.560;7.262;2024-01-11T10:55:12;45.37;;;25.03;;
26484;SDS011;18083;50.560;7.262;2024-01-11T10:57:39;40.70;;;22.13;;
26484;SDS011;18083;50.560;7.262;2024-01-11T11:00:07;45.57;;;23.03;;
26484;SDS011;18083;50.560;7.262;2024-01-11T11:02:36;39.57;;;22.77;;
26484;SDS011;18083;50.560;7.262;2024-01-11T11:05:04;40.77;;;24.33;;
26484;SDS011;18083;50.560;7.262;2024-01-11T11:07:33;39.50;;;22.27;;
26484;SDS011;18083;50.560;7.262;2024-01-11T11:10:00;42.67;;;23.13;;
26484;SDS011;18083;50.560;7.262;2024-01-11T11:12:28;44.77;;;23.03;;
26484;SDS011;18083;50.560;7.262;2024-01-11T11:14:55;44.10;;;22.97;;
26484;SDS011;18083;50.560;7.262;2024-01-11T11:17:23;44.20;;;23.53;;
26484;SDS011;18083;50.560;7.262;2024-01-11T11:19:50;36.60;;;20.93;;
26484;SDS011;18083;50.560;7.262;2024-01-11T11:22:18;39.23;;;22.13;;
26484;SDS011;18083;50.560;7.262;2024-01-11T11:27:35;44.77;;;22.97;;
26484;SDS011;18083;50.560;7.262;2024-01-11T11:30:02;42.00;;;22.23;;
26484;SDS011;18083;50.560;7.262;2024-01-11T11:32:42;40.37;;;21.30;;
26484;SDS011;18083;50.560;7.262;2024-01-11T11:35:11;42.60;;;23.37;;
26484;SDS011;18083;50.560;7.262;2024-01-11T11:38:00;41.37;;;22.33;;
26484;SDS011;18083;50.560;7.262;2024-01-11T11:40:38;39.70;;;21.93;;
26484;SDS011;18083;50.560;7.262;2024-01-11T11:43:08;41.27;;;20.73;;
26484;SDS011;18083;50.560;7.262;2024-01-11T11:45:35;35.07;;;20.60;;
26484;SDS011;18083;50.560;7.262;2024-01-11T11:48:49;35.93;;;21.80;;
26484;SDS011;18083;50.560;7.262;2024-01-11T11:50:32;41.33;;;21.97;;
26484;SDS011;18083;50.560;7.262;2024-01-11T11:53:01;42.43;;;23.67;;
26484;SDS011;18083;50.560;7.262;2024-01-11T11:55:28;36.17;;;23.57;;
26484;SDS011;18083;50.560;7.262;2024-01-11T11:57:56;42.60;;;22.17;;
26484;SDS011;18083;50.560;7.262;2024-01-11T12:00:23;40.43;;;21.87;;
26484;SDS011;18083;50.560;7.262;2024-01-11T12:02:50;42.37;;;25.20;;
26484;SDS011;18083;50.560;7.262;2024-01-11T12:05:19;44.50;;;21.27;;
26484;SDS011;18083;50.560;7.262;2024-01-11T12:07:47;42.87;;;23.03;;
26484;SDS011;18083;50.560;7.262;2024-01-11T12:10:14;43.27;;;24.90;;
26484;SDS011;18083;50.560;7.262;2024-01-11T12:12:41;48.90;;;23.73;;
26484;SDS011;18083;50.560;7.262;2024-01-11T12:15:09;34.50;;;19.47;;
26484;SDS011;18083;50.560;7.262;2024-01-11T12:17:37;43.50;;;24.40;;
26484;SDS011;18083;50.560;7.262;2024-01-11T12:20:06;43.43;;;24.67;;
26484;SDS011;18083;50.560;7.262;2024-01-11T12:22:33;46.60;;;24.67;;
26484;SDS011;18083;50.560;7.262;2024-01-11T12:25:01;47.07;;;24.03;;
26484;SDS011;18083;50.560;7.262;2024-01-11T12:27:29;43.80;;;23.30;;
26484;SDS011;18083;50.560;7.262;2024-01-11T12:29:57;38.20;;;24.07;;
26484;SDS011;18083;50.560;7.262;2024-01-11T12:32:24;37.83;;;23.40;;
26484;SDS011;18083;50.560;7.262;2024-01-11T12:34:51;43.10;;;24.47;;
26484;SDS011;18083;50.560;7.262;2024-01-11T12:37:19;49.37;;;24.33;;
26484;SDS011;18083;50.560;7.262;2024-01-11T12:39:47;44.63;;;22.37;;
26484;SDS011;18083;50.560;7.262;2024-01-11T12:42:14;36.97;;;23.23;;
26484;SDS011;18083;50.560;7.262;2024-01-11T12:44:42;40.93;;;23.67;;
26484;SDS011;18083;50.560;7.262;2024-01-11T12:47:10;42.33;;;23.17;;
26484;SDS011;18083;50.560;7.262;2024-01-11T12:49:37;43.03;;;22.30;;
26484;SDS011;18083;50.560;7.262;2024-01-11T12:52:04;41.03;;;23.33;;
26484;SDS011;18083;50.560;7.262;2024-01-11T12:54:32;38.37;;;22.07;;
26484;SDS011;18083;50.560;7.262;2024-01-11T12:57:00;37.27;;;23.03;;
26484;SDS011;18083;50.560;7.262;2024-01-11T12:59:28;43.23;;;22.83;;
26484;SDS011;18083;50.560;7.262;2024-01-11T13:01:56;42.30;;;23.10;;
26484;SDS011;18083;50.560;7.262;2024-01-11T13:04:23;36.23;;;22.03;;
26484;SDS011;18083;50.560;7.262;2024-01-11T13:06:50;41.03;;;23.57;;
26484;SDS011;18083;50.560;7.262;2024-01-11T13:09:18;41.40;;;23.37;;
26484;SDS011;18083;50.560;7.262;2024-01-11T13:11:45;40.13;;;22.13;;
26484;SDS011;18083;50.560;7.262;2024-01-11T13:14:12;37.93;;;22.73;;
26484;SDS011;18083;50.560;7.262;2024-01-11T13:16:41;37.27;;;22.10;;
26484;SDS011;18083;50.560;7.262;2024-01-11T13:19:09;42.83;;;24.33;;
26484;SDS011;18083;50.560;7.262;2024-01-11T13:21:37;41.97;;;23.77;;
26484;SDS011;18083;50.560;7.262;2024-01-11T13:24:06;39.97;;;22.47;;
26484;SDS011;18083;50.560;7.262;2024-01-11T13:26:35;40.67;;;24.50;;
26484;SDS011;18083;50.560;7.262;2024-01-11T13:29:04;45.43;;;25.70;;
26484;SDS011;18083;50.560;7.262;2024-01-11T13:31:34;43.03;;;24.23;;
26484;SDS011;18083;50.560;7.262;2024-01-11T13:34:01;42.30;;;23.87;;
26484;SDS011;18083;50.560;7.262;2024-01-11T13:36:29;46.03;;;24.37;;
26484;SDS011;18083;50.560;7.262;2024-01-11T13:38:57;47.53;;;25.37;;
26484;SDS011;18083;50.560;7.262;2024-01-11T13:41:24;44.70;;;26.50;;
26484;SDS011;18083;50.560;7.262;2024-01-11T13:43:52;48.87;;;26.03;;
26484;SDS011;18083;50.560;7.262;2024-01-11T13:46:20;50.07;;;25.00;;
26484;SDS011;18083;50.560;7.262;2024-01-11T13:48:47;53.67;;;26.67;;
26484;SDS011;18083;50.560;7.262;2024-01-11T13:51:15;55.53;;;28.80;;
26484;SDS011;18083;50.560;7.262;2024-01-11T13:53:42;46.50;;;24.17;;
26484;SDS011;18083;50.560;7.262;2024-01-11T13:56:09;48.50;;;25.23;;
26484;SDS011;18083;50.560;7.262;2024-01-11T13:58:37;46.10;;;25.80;;
26484;SDS011;18083;50.560;7.262;2024-01-11T14:01:04;43.53;;;25.77;;
26484;SDS011;18083;50.560;7.262;2024-01-11T14:03:31;44.00;;;24.13;;
26484;SDS011;18083;50.560;7.262;2024-01-11T14:05:59;42.23;;;25.73;;
26484;SDS011;18083;50.560;7.262;2024-01-11T14:08:26;41.37;;;25.40;;
26484;SDS011;18083;50.560;7.262;2024-01-11T14:10:53;54.87;;;27.63;;
26484;SDS011;18083;50.560;7.262;2024-01-11T14:13:21;48.83;;;24.07;;
26484;SDS011;18083;50.560;7.262;2024-01-11T14:15:48;50.10;;;27.67;;
26484;SDS011;18083;50.560;7.262;2024-01-11T14:18:17;44.60;;;25.47;;
26484;SDS011;18083;50.560;7.262;2024-01-11T14:20:45;53.80;;;26.67;;
26484;SDS011;18083;50.560;7.262;2024-01-11T14:23:12;55.10;;;28.70;;
26484;SDS011;18083;50.560;7.262;2024-01-11T14:25:39;52.10;;;26.97;;
26484;SDS011;18083;50.560;7.262;2024-01-11T14:28:07;48.10;;;26.43;;
26484;SDS011;18083;50.560;7.262;2024-01-11T14:30:34;50.47;;;28.80;;
26484;SDS011;18083;50.560;7.262;2024-01-11T14:33:01;51.43;;;28.77;;